sensor_id;sensor_type;location;lat;lon;timestamp;pressure;altitude;pressure_sealevel;temperature;humidity
36692;BME280;22678;52.052;4.242;2024-03-08T00:00:18;101908.38;;;4.35;87.76
36692;BME280;22678;52.052;4.242;2024-03-08T00:02:45;101892.47;;;4.26;88.25
36692;BME280;22678;52.052;4.242;2024-03-08T00:05:12;101892.34;;;4.23;88.38
36692;BME280;22678;52.052;4.242;2024-03-08T00:07:39;101894.34;;;4.30;88.54
36692;BME280;22678;52.052;4.242;2024-03-08T00:10:06;101900.22;;;4.25;88.28
36692;BME280;22678;52.052;4.242;2024-03-08T00:12:39;101895.78;;;4.22;88.58
36692;BME280;22678;52.052;4.242;2024-03-08T00:15:10;101876.53;;;4.17;88.65
36692;BME280;22678;52.052;4.242;2024-03-08T00:17:36;101880.06;;;4.19;88.39
36692;BME280;22678;52.052;4.242;2024-03-08T00:20:02;101841.94;;;3.95;88.26
36692;BME280;22678;52.052;4.242;2024-03-08T00:22:33;101885.31;;;4.20;88.36
36692;BME280;22678;52.052;4.242;2024-03-08T00:24:59;101872.97;;;4.15;88.52
36692;BME280;22678;52.052;4.242;2024-03-08T00:27:24;101872.09;;;4.14;88.54
36692;BME280;22678;52.052;4.242;2024-03-08T00:29:49;101875.56;;;4.15;88.42
36692;BME280;22678;52.052;4.242;2024-03-08T00:32:15;101863.13;;;4.06;88.40
36692;BME280;22678;52.052;4.242;2024-03-08T00:34:42;101861.47;;;4.08;88.58
36692;BME280;22678;52.052;4.242;2024-03-08T00:37:08;101867.66;;;4.12;88.38
36692;BME280;22678;52.052;4.242;2024-03-08T00:39:34;101823.41;;;3.86;88.44
36692;BME280;22678;52.052;4.242;2024-03-08T00:41:59;101861.41;;;4.07;88.75
36692;BME280;22678;52.052;4.242;2024-03-08T00:44:24;101853.50;;;4.03;88.54
36692;BME280;22678;52.052;4.242;2024-03-08T00:46:50;101859.59;;;4.04;88.40
36692;BME280;22678;52.052;4.242;2024-03-08T00:49:15;101867.44;;;4.06;88.70
36692;BME280;22678;52.052;4.242;2024-03-08T00:51:40;101863.91;;;4.03;88.62
36692;BME280;22678;52.052;4.242;2024-03-08T00:54:06;101859.47;;;4.01;88.45
36692;BME280;22678;52.052;4.242;2024-03-08T00:56:31;101860.25;;;3.98;88.28
36692;BME280;22678;52.052;4.242;2024-03-08T00:58:56;101829.13;;;3.76;88.38
36692;BME280;22678;52.052;4.242;2024-03-08T01:01:22;101824.00;;;3.79;88.21
36692;BME280;22678;52.052;4.242;2024-03-08T01:03:47;101851.47;;;3.95;88.28
36692;BME280;22678;52.052;4.242;2024-03-08T01:06:14;101818.88;;;3.80;88.46
36692;BME280;22678;52.052;4.242;2024-03-08T01:08:39;101814.44;;;3.78;88.23
36692;BME280;22678;52.052;4.242;2024-03-08T01:11:07;101823.19;;;3.80;88.54
36692;BME280;22678;52.052;4.242;2024-03-08T01:13:33;101816.09;;;3.76;88.54
36692;BME280;22678;52.052;4.242;2024-03-08T01:15:58;101839.00;;;3.86;88.37
36692;BME280;22678;52.052;4.242;2024-03-08T01:18:23;101808.13;;;3.71;88.33
36692;BME280;22678;52.052;4.242;2024-03-08T01:20:49;101824.00;;;3.79;88.35
36692;BME280;22678;52.052;4.242;2024-03-08T01:23:14;101821.41;;;3.79;88.65
36692;BME280;22678;52.052;4.242;2024-03-08T01:25:39;101784.31;;;3.60;88.45
36692;BME280;22678;52.052;4.242;2024-03-08T01:28:06;101807.13;;;3.67;88.46
36692;BME280;22678;52.052;4.242;2024-03-08T01:30:32;101815.16;;;3.74;88.05
36692;BME280;22678;52.052;4.242;2024-03-08T01:32:59;101796.50;;;3.61;88.11
36692;BME280;22678;52.052;4.242;2024-03-08T01:35:24;101808.00;;;3.68;88.22
36692;BME280;22678;52.052;4.242;2024-03-08T01:37:51;101787.69;;;3.58;88.32
36692;BME280;22678;52.052;4.242;2024-03-08T01:40:17;101775.28;;;3.49;87.88
36692;BME280;22678;52.052;4.242;2024-03-08T01:42:42;101767.22;;;3.43;88.13
36692;BME280;22678;52.052;4.242;2024-03-08T01:45:08;101781.41;;;3.51;88.08
36692;BME280;22678;52.052;4.242;2024-03-08T01:47:34;101787.47;;;3.51;88.02
36692;BME280;22678;52.052;4.242;2024-03-08T01:50:00;101792.84;;;3.56;88.00
36692;BME280;22678;52.052;4.242;2024-03-08T01:52:28;101758.22;;;3.33;87.88
36692;BME280;22678;52.052;4.242;2024-03-08T01:54:58;101780.47;;;3.49;87.99
36692;BME280;22678;52.052;4.242;2024-03-08T01:57:26;101781.31;;;3.48;88.28
36692;BME280;22678;52.052;4.242;2024-03-08T01:59:52;101780.47;;;3.49;87.79
36692;BME280;22678;52.052;4.242;2024-03-08T02:02:20;101763.72;;;3.41;87.63
36692;BME280;22678;52.052;4.242;2024-03-08T02:04:46;101755.69;;;3.35;87.73
36692;BME280;22678;52.052;4.242;2024-03-08T02:07:11;101782.13;;;3.47;87.75
36692;BME280;22678;52.052;4.242;2024-03-08T02:09:37;101777.47;;;3.38;87.98
36692;BME280;22678;52.052;4.242;2024-03-08T02:12:02;101759.00;;;3.30;88.03
36692;BME280;22678;52.052;4.242;2024-03-08T02:14:28;101780.97;;;3.39;87.70
36692;BME280;22678;52.052;4.242;2024-03-08T02:16:53;101746.59;;;3.23;87.82
36692;BME280;22678;52.052;4.242;2024-03-08T02:19:19;101773.19;;;3.39;87.71
36692;BME280;22678;52.052;4.242;2024-03-08T02:21:45;101776.59;;;3.38;87.75
36692;BME280;22678;52.052;4.242;2024-03-08T02:24:12;101754.56;;;3.28;87.50
36692;BME280;22678;52.052;4.242;2024-03-08T02:26:38;101692.75;;;2.95;87.65
36692;BME280;22678;52.052;4.242;2024-03-08T02:29:03;101715.69;;;3.07;87.37
36692;BME280;22678;52.052;4.242;2024-03-08T02:31:30;101707.91;;;3.07;87.42
36692;BME280;22678;52.052;4.242;2024-03-08T02:33:55;101751.91;;;3.26;87.31
36692;BME280;22678;52.052;4.242;2024-03-08T02:36:21;101617.53;;;2.51;87.10
36692;BME280;22678;52.052;4.242;2024-03-08T02:38:46;101631.41;;;2.52;87.32
36692;BME280;22678;52.052;4.242;2024-03-08T02:41:12;101691.72;;;2.91;87.55
36692;BME280;22678;52.052;4.242;2024-03-08T02:43:37;101668.63;;;2.75;87.46
36692;BME280;22678;52.052;4.242;2024-03-08T02:46:03;101704.19;;;3.00;87.43
36692;BME280;22678;52.052;4.242;2024-03-08T02:48:30;101595.38;;;2.37;87.46
36692;BME280;22678;52.052;4.242;2024-03-08T02:50:55;101667.63;;;2.71;87.52
36692;BME280;22678;52.052;4.242;2024-03-08T02:53:21;101744.38;;;3.10;87.71
36692;BME280;22678;52.052;4.242;2024-03-08T02:55:47;101636.72;;;2.55;87.29
36692;BME280;22678;52.052;4.242;2024-03-08T02:58:12;101672.19;;;2.77;87.42
36692;BME280;22678;52.052;4.242;2024-03-08T03:00:40;101635.88;;;2.56;87.55
36692;BME280;22678;52.052;4.242;2024-03-08T03:03:06;101711.16;;;3.01;87.47
36692;BME280;22678;52.052;4.242;2024-03-08T03:05:32;101600.50;;;2.35;87.47
36692;BME280;22678;52.052;4.242;2024-03-08T03:07:57;101571.97;;;2.13;87.50
36692;BME280;22678;52.052;4.242;2024-03-08T03:10:25;101705.75;;;2.95;87.42
36692;BME280;22678;52.052;4.242;2024-03-08T03:12:51;101582.00;;;2.26;87.37
36692;BME280;22678;52.052;4.242;2024-03-08T03:15:17;101580.06;;;2.20;87.52
36692;BME280;22678;52.052;4.242;2024-03-08T03:17:50;101566.84;;;2.14;87.33
36692;BME280;22678;52.052;4.242;2024-03-08T03:20:17;101577.13;;;2.11;87.72
36692;BME280;22678;52.052;4.242;2024-03-08T03:22:50;101583.47;;;2.19;87.52
36692;BME280;22678;52.052;4.242;2024-03-08T03:25:21;101568.38;;;2.09;87.52
36692;BME280;22678;52.052;4.242;2024-03-08T03:28:01;101611.78;;;2.36;87.76
36692;BME280;22678;52.052;4.242;2024-03-08T03:30:27;101673.66;;;2.70;87.65
36692;BME280;22678;52.052;4.242;2024-03-08T03:32:58;101685.75;;;2.70;87.81
36692;BME280;22678;52.052;4.242;2024-03-08T03:35:26;101546.34;;;1.98;87.78
36692;BME280;22678;52.052;4.242;2024-03-08T03:37:52;101643.41;;;2.48;87.68
36692;BME280;22678;52.052;4.242;2024-03-08T03:40:30;101537.25;;;1.86;87.72
36692;BME280;22678;52.052;4.242;2024-03-08T03:42:56;101598.22;;;2.20;87.78
36692;BME280;22678;52.052;4.242;2024-03-08T03:45:22;101547.75;;;1.89;87.64
36692;BME280;22678;52.052;4.242;2024-03-08T03:47:48;101567.16;;;1.99;87.94
36692;BME280;22678;52.052;4.242;2024-03-08T03:50:14;101541.50;;;1.84;87.77
36692;BME280;22678;52.052;4.242;2024-03-08T03:52:40;101646.69;;;2.44;87.77
36692;BME280;22678;52.052;4.242;2024-03-08T03:55:08;101538.91;;;1.84;87.85
36692;BME280;22678;52.052;4.242;2024-03-08T03:57:34;101547.41;;;1.80;87.92
36692;BME280;22678;52.052;4.242;2024-03-08T03:59:59;101666.06;;;2.52;87.89
36692;BME280;22678;52.052;4.242;2024-03-08T04:02:25;101526.16;;;1.68;87.57
36692;BME280;22678;52.052;4.242;2024-03-08T04:04:52;101610.16;;;2.15;88.11
36692;BME280;22678;52.052;4.242;2024-03-08T04:07:17;101552.34;;;1.74;87.98
36692;BME280;22678;52.052;4.242;2024-03-08T04:09:43;101658.75;;;2.42;87.90
36692;BME280;22678;52.052;4.242;2024-03-08T04:12:09;101536.69;;;1.71;88.13
36692;BME280;22678;52.052;4.242;2024-03-08T04:14:35;101519.22;;;1.67;87.64
36692;BME280;22678;52.052;4.242;2024-03-08T04:17:01;101522.56;;;1.64;87.79
36692;BME280;22678;52.052;4.242;2024-03-08T04:19:27;101661.94;;;2.35;88.07
36692;BME280;22678;52.052;4.242;2024-03-08T04:21:53;101625.25;;;2.25;88.19
36692;BME280;22678;52.052;4.242;2024-03-08T04:24:19;101592.56;;;2.08;88.07
36692;BME280;22678;52.052;4.242;2024-03-08T04:26:46;101628.66;;;2.24;88.19
36692;BME280;22678;52.052;4.242;2024-03-08T04:29:11;101633.09;;;2.27;87.98
36692;BME280;22678;52.052;4.242;2024-03-08T04:31:39;101626.75;;;2.20;87.99
36692;BME280;22678;52.052;4.242;2024-03-08T04:34:05;101645.16;;;2.26;87.92
36692;BME280;22678;52.052;4.242;2024-03-08T04:36:30;101611.59;;;2.08;88.14
36692;BME280;22678;52.052;4.242;2024-03-08T04:38:55;101596.34;;;1.93;88.11
36692;BME280;22678;52.052;4.242;2024-03-08T04:41:21;101601.63;;;1.97;87.87
36692;BME280;22678;52.052;4.242;2024-03-08T04:43:48;101635.88;;;2.10;88.11
36692;BME280;22678;52.052;4.242;2024-03-08T04:46:13;101553.06;;;1.70;87.96
36692;BME280;22678;52.052;4.242;2024-03-08T04:48:39;101589.25;;;1.89;88.11
36692;BME280;22678;52.052;4.242;2024-03-08T04:51:04;101512.13;;;1.40;87.96
36692;BME280;22678;52.052;4.242;2024-03-08T04:53:30;101582.22;;;1.87;88.01
36692;BME280;22678;52.052;4.242;2024-03-08T04:55:57;101608.94;;;2.07;87.95
36692;BME280;22678;52.052;4.242;2024-03-08T04:58:23;101503.56;;;1.43;88.17
36692;BME280;22678;52.052;4.242;2024-03-08T05:00:48;101621.88;;;2.05;88.33
36692;BME280;22678;52.052;4.242;2024-03-08T05:03:14;101587.34;;;1.85;87.74
36692;BME280;22678;52.052;4.242;2024-03-08T05:05:39;101623.72;;;2.08;88.12
36692;BME280;22678;52.052;4.242;2024-03-08T05:08:05;101596.34;;;1.93;88.06
36692;BME280;22678;52.052;4.242;2024-03-08T05:10:30;101591.91;;;1.91;87.98
36692;BME280;22678;52.052;4.242;2024-03-08T05:12:55;101593.75;;;1.93;88.00
36692;BME280;22678;52.052;4.242;2024-03-08T05:15:21;101601.81;;;2.01;87.89
36692;BME280;22678;52.052;4.242;2024-03-08T05:17:47;101599.22;;;2.01;88.01
36692;BME280;22678;52.052;4.242;2024-03-08T05:20:12;101573.50;;;1.85;87.82
36692;BME280;22678;52.052;4.242;2024-03-08T05:22:38;101573.34;;;1.80;87.74
36692;BME280;22678;52.052;4.242;2024-03-08T05:25:05;101571.78;;;1.85;87.99
36692;BME280;22678;52.052;4.242;2024-03-08T05:27:33;101559.16;;;1.72;87.73
36692;BME280;22678;52.052;4.242;2024-03-08T05:29:59;101576.84;;;1.82;88.06
36692;BME280;22678;52.052;4.242;2024-03-08T05:32:24;101555.75;;;1.73;87.83
36692;BME280;22678;52.052;4.242;2024-03-08T05:34:50;101578.53;;;1.80;87.69
36692;BME280;22678;52.052;4.242;2024-03-08T05:37:15;101585.34;;;1.78;87.96
36692;BME280;22678;52.052;4.242;2024-03-08T05:39:41;101570.38;;;1.71;87.60
36692;BME280;22678;52.052;4.242;2024-03-08T05:42:06;101595.13;;;1.85;88.06
36692;BME280;22678;52.052;4.242;2024-03-08T05:44:34;101589.81;;;1.82;87.64
36692;BME280;22678;52.052;4.242;2024-03-08T05:46:59;101595.06;;;1.84;87.93
36692;BME280;22678;52.052;4.242;2024-03-08T05:49:24;101566.00;;;1.70;87.63
36692;BME280;22678;52.052;4.242;2024-03-08T05:51:50;101587.00;;;1.76;87.84
36692;BME280;22678;52.052;4.242;2024-03-08T05:54:16;101558.94;;;1.66;87.59
36692;BME280;22678;52.052;4.242;2024-03-08T05:56:42;101559.06;;;1.69;87.56
36692;BME280;22678;52.052;4.242;2024-03-08T05:59:08;101584.53;;;1.79;87.51
36692;BME280;22678;52.052;4.242;2024-03-08T06:01:34;101586.25;;;1.79;87.65
36692;BME280;22678;52.052;4.242;2024-03-08T06:04:02;101572.38;;;1.78;87.37
36692;BME280;22678;52.052;4.242;2024-03-08T06:06:27;101544.75;;;1.57;87.51
36692;BME280;22678;52.052;4.242;2024-03-08T06:08:53;101525.34;;;1.46;87.37
36692;BME280;22678;52.052;4.242;2024-03-08T06:11:19;101574.84;;;1.75;87.39
36692;BME280;22678;52.052;4.242;2024-03-08T06:13:46;101566.94;;;1.72;87.61
36692;BME280;22678;52.052;4.242;2024-03-08T06:16:11;101568.84;;;1.76;87.23
36692;BME280;22678;52.052;4.242;2024-03-08T06:18:37;101560.88;;;1.71;87.73
36692;BME280;22678;52.052;4.242;2024-03-08T06:21:04;101570.56;;;1.75;87.24
36692;BME280;22678;52.052;4.242;2024-03-08T06:23:35;101546.78;;;1.65;87.31
36692;BME280;22678;52.052;4.242;2024-03-08T06:26:07;101546.66;;;1.62;87.27
36692;BME280;22678;52.052;4.242;2024-03-08T06:28:33;101526.56;;;1.56;87.15
36692;BME280;22678;52.052;4.242;2024-03-08T06:31:00;101556.63;;;1.73;87.33
36692;BME280;22678;52.052;4.242;2024-03-08T06:33:25;101532.66;;;1.56;87.46
36692;BME280;22678;52.052;4.242;2024-03-08T06:35:54;101552.34;;;1.74;87.13
36692;BME280;22678;52.052;4.242;2024-03-08T06:38:22;101554.94;;;1.74;87.04
36692;BME280;22678;52.052;4.242;2024-03-08T06:40:48;101553.22;;;1.74;87.13
36692;BME280;22678;52.052;4.242;2024-03-08T06:43:14;101547.16;;;1.74;87.24
36692;BME280;22678;52.052;4.242;2024-03-08T06:45:42;101541.97;;;1.74;86.90
36692;BME280;22678;52.052;4.242;2024-03-08T06:48:10;101548.91;;;1.75;87.09
36692;BME280;22678;52.052;4.242;2024-03-08T06:50:36;101547.28;;;1.77;87.52
36692;BME280;22678;52.052;4.242;2024-03-08T06:53:01;101530.81;;;1.77;87.30
36692;BME280;22678;52.052;4.242;2024-03-08T06:55:28;101506.84;;;1.60;86.88
36692;BME280;22678;52.052;4.242;2024-03-08T06:57:54;101481.38;;;1.49;87.21
36692;BME280;22678;52.052;4.242;2024-03-08T07:00:19;101485.88;;;1.53;86.95
36692;BME280;22678;52.052;4.242;2024-03-08T07:02:46;101522.97;;;1.75;87.33
36692;BME280;22678;52.052;4.242;2024-03-08T07:05:14;101526.88;;;1.86;87.16
36692;BME280;22678;52.052;4.242;2024-03-08T07:07:39;101520.03;;;1.88;87.03
36692;BME280;22678;52.052;4.242;2024-03-08T07:10:06;101525.38;;;1.91;86.87
36692;BME280;22678;52.052;4.242;2024-03-08T07:12:36;101520.63;;;2.04;87.04
36692;BME280;22678;52.052;4.242;2024-03-08T07:15:02;101498.75;;;1.97;86.98
36692;BME280;22678;52.052;4.242;2024-03-08T07:17:27;101533.56;;;2.26;87.15
36692;BME280;22678;52.052;4.242;2024-03-08T07:19:52;101522.94;;;2.43;86.24
36692;BME280;22678;52.052;4.242;2024-03-08T07:22:19;101514.50;;;2.50;86.37
36692;BME280;22678;52.052;4.242;2024-03-08T07:24:44;101507.69;;;2.52;85.91
36692;BME280;22678;52.052;4.242;2024-03-08T07:27:41;101505.38;;;2.61;85.64
36692;BME280;22678;52.052;4.242;2024-03-08T07:30:07;101495.97;;;2.63;85.36
36692;BME280;22678;52.052;4.242;2024-03-08T07:32:35;101507.69;;;2.78;85.14
36692;BME280;22678;52.052;4.242;2024-03-08T07:35:01;101508.13;;;2.90;84.76
36692;BME280;22678;52.052;4.242;2024-03-08T07:37:28;101518.88;;;3.01;84.54
36692;BME280;22678;52.052;4.242;2024-03-08T07:39:54;101520.75;;;3.05;83.84
36692;BME280;22678;52.052;4.242;2024-03-08T07:42:19;101512.16;;;3.08;83.86
36692;BME280;22678;52.052;4.242;2024-03-08T07:44:46;101514.00;;;3.12;83.67
36692;BME280;22678;52.052;4.242;2024-03-08T07:47:13;101506.44;;;3.18;83.07
36692;BME280;22678;52.052;4.242;2024-03-08T07:49:38;101499.53;;;3.19;82.98
36692;BME280;22678;52.052;4.242;2024-03-08T07:52:04;101468.81;;;3.07;82.49
36692;BME280;22678;52.052;4.242;2024-03-08T07:54:33;101461.25;;;3.14;82.36
36692;BME280;22678;52.052;4.242;2024-03-08T07:56:58;101509.06;;;3.47;81.72
36692;BME280;22678;52.052;4.242;2024-03-08T07:59:24;101499.41;;;3.43;81.08
36692;BME280;22678;52.052;4.242;2024-03-08T08:01:49;101512.09;;;3.59;81.13
36692;BME280;22678;52.052;4.242;2024-03-08T08:04:15;101479.88;;;3.56;80.96
36692;BME280;22678;52.052;4.242;2024-03-08T08:06:43;101497.97;;;3.80;80.35
36692;BME280;22678;52.052;4.242;2024-03-08T08:09:08;101484.06;;;3.79;79.71
36692;BME280;22678;52.052;4.242;2024-03-08T08:11:42;101497.56;;;3.96;79.36
36692;BME280;22678;52.052;4.242;2024-03-08T08:14:09;101483.63;;;3.94;78.78
36692;BME280;22678;52.052;4.242;2024-03-08T08:16:35;101490.19;;;4.12;78.38
36692;BME280;22678;52.052;4.242;2024-03-08T08:19:06;101413.94;;;3.84;78.04
36692;BME280;22678;52.052;4.242;2024-03-08T08:21:36;101486.34;;;4.29;77.58
36692;BME280;22678;52.052;4.242;2024-03-08T08:24:05;101468.25;;;4.34;77.34
36692;BME280;22678;52.052;4.242;2024-03-08T08:26:31;101461.66;;;4.47;77.09
36692;BME280;22678;52.052;4.242;2024-03-08T08:28:58;101387.97;;;4.17;76.48
36692;BME280;22678;52.052;4.242;2024-03-08T08:31:23;101420.13;;;4.53;76.41
36692;BME280;22678;52.052;4.242;2024-03-08T08:33:48;101424.00;;;4.67;75.41
36692;BME280;22678;52.052;4.242;2024-03-08T08:36:14;101456.84;;;4.97;74.93
36692;BME280;22678;52.052;4.242;2024-03-08T08:38:39;101392.78;;;4.70;74.43
36692;BME280;22678;52.052;4.242;2024-03-08T08:41:05;101379.94;;;4.78;74.28
36692;BME280;22678;52.052;4.242;2024-03-08T08:43:31;101357.41;;;4.79;73.91
36692;BME280;22678;52.052;4.242;2024-03-08T08:45:58;101381.31;;;4.99;73.34
36692;BME280;22678;52.052;4.242;2024-03-08T08:48:24;101441.50;;;5.48;72.81
36692;BME280;22678;52.052;4.242;2024-03-08T08:50:50;101396.84;;;5.32;71.93
36692;BME280;22678;52.052;4.242;2024-03-08T08:53:17;101362.72;;;5.21;72.22
36692;BME280;22678;52.052;4.242;2024-03-08T08:55:43;101432.59;;;5.77;71.73
36692;BME280;22678;52.052;4.242;2024-03-08T08:58:11;101416.19;;;5.83;71.86
36692;BME280;22678;52.052;4.242;2024-03-08T09:00:36;101374.16;;;5.71;71.31
36692;BME280;22678;52.052;4.242;2024-03-08T09:03:02;101385.06;;;5.92;71.08
36692;BME280;22678;52.052;4.242;2024-03-08T09:05:27;101397.69;;;6.15;70.16
36692;BME280;22678;52.052;4.242;2024-03-08T09:07:53;101331.94;;;5.90;69.91
36692;BME280;22678;52.052;4.242;2024-03-08T09:10:18;101333.72;;;5.93;69.06
36692;BME280;22678;52.052;4.242;2024-03-08T09:12:44;101406.13;;;6.47;68.67
36692;BME280;22678;52.052;4.242;2024-03-08T09:15:10;101393.94;;;6.46;68.86
36692;BME280;22678;52.052;4.242;2024-03-08T09:17:38;101406.41;;;6.63;67.60
36692;BME280;22678;52.052;4.242;2024-03-08T09:20:08;101383.69;;;6.60;68.25
36692;BME280;22678;52.052;4.242;2024-03-08T09:22:35;101387.47;;;6.78;67.65
36692;BME280;22678;52.052;4.242;2024-03-08T09:25:00;101384.06;;;6.83;66.84
36692;BME280;22678;52.052;4.242;2024-03-08T09:27:26;101384.16;;;6.90;67.01
36692;BME280;22678;52.052;4.242;2024-03-08T09:29:51;101373.81;;;6.97;66.68
36692;BME280;22678;52.052;4.242;2024-03-08T09:32:16;101344.88;;;6.83;66.05
36692;BME280;22678;52.052;4.242;2024-03-08T09:34:42;101369.63;;;7.07;66.03
36692;BME280;22678;52.052;4.242;2024-03-08T09:37:07;101348.59;;;6.99;65.97
36692;BME280;22678;52.052;4.242;2024-03-08T09:39:34;101356.75;;;7.23;65.86
36692;BME280;22678;52.052;4.242;2024-03-08T09:42:00;101354.38;;;7.41;65.91
36692;BME280;22678;52.052;4.242;2024-03-08T09:44:26;101351.06;;;7.54;65.08
36692;BME280;22678;52.052;4.242;2024-03-08T09:46:54;101335.47;;;7.65;64.87
36692;BME280;22678;52.052;4.242;2024-03-08T09:49:20;101334.63;;;7.68;64.69
36692;BME280;22678;52.052;4.242;2024-03-08T09:51:45;101309.31;;;7.67;63.98
36692;BME280;22678;52.052;4.242;2024-03-08T09:54:12;101307.72;;;7.80;64.31
36692;BME280;22678;52.052;4.242;2024-03-08T09:56:39;101297.25;;;7.80;63.79
36692;BME280;22678;52.052;4.242;2024-03-08T09:59:06;101317.53;;;8.01;63.04
36692;BME280;22678;52.052;4.242;2024-03-08T10:01:51;101315.91;;;8.12;62.94
36692;BME280;22678;52.052;4.242;2024-03-08T10:04:17;101301.09;;;8.16;62.65
36692;BME280;22678;52.052;4.242;2024-03-08T10:06:43;101287.16;;;8.21;62.26
36692;BME280;22678;52.052;4.242;2024-03-08T10:09:09;101286.44;;;8.39;62.51
36692;BME280;22678;52.052;4.242;2024-03-08T10:11:35;101290.94;;;8.50;62.01
36692;BME280;22678;52.052;4.242;2024-03-08T10:14:01;101207.66;;;8.15;61.64
36692;BME280;22678;52.052;4.242;2024-03-08T10:16:27;101274.47;;;8.71;60.93
36692;BME280;22678;52.052;4.242;2024-03-08T10:18:52;101283.28;;;8.84;60.77
36692;BME280;22678;52.052;4.242;2024-03-08T10:21:19;101269.34;;;8.86;60.69
36692;BME280;22678;52.052;4.242;2024-03-08T10:23:44;101266.75;;;8.97;60.62
36692;BME280;22678;52.052;4.242;2024-03-08T10:26:14;101247.53;;;9.01;60.39
36692;BME280;22678;52.052;4.242;2024-03-08T10:28:47;101261.63;;;9.22;59.93
36692;BME280;22678;52.052;4.242;2024-03-08T10:31:14;101212.56;;;9.05;59.21
36692;BME280;22678;52.052;4.242;2024-03-08T10:33:40;101247.69;;;9.43;59.81
36692;BME280;22678;52.052;4.242;2024-03-08T10:36:10;101221.44;;;9.44;59.11
36692;BME280;22678;52.052;4.242;2024-03-08T10:38:37;101234.63;;;9.66;58.96
36692;BME280;22678;52.052;4.242;2024-03-08T10:41:05;101219.75;;;9.73;58.95
36692;BME280;22678;52.052;4.242;2024-03-08T10:43:38;101202.25;;;9.78;58.59
36692;BME280;22678;52.052;4.242;2024-03-08T10:49:03;101208.38;;;10.11;57.66
36692;BME280;22678;52.052;4.242;2024-03-08T10:51:32;101204.88;;;10.24;57.60
36692;BME280;22678;52.052;4.242;2024-03-08T10:53:59;101213.66;;;10.36;56.94
36692;BME280;22678;52.052;4.242;2024-03-08T10:56:24;101206.63;;;10.28;56.12
36692;BME280;22678;52.052;4.242;2024-03-08T10:58:53;101185.59;;;10.25;55.78
36692;BME280;22678;52.052;4.242;2024-03-08T11:01:19;101190.84;;;10.22;55.73
36692;BME280;22678;52.052;4.242;2024-03-08T11:03:46;101181.22;;;10.24;55.85
36692;BME280;22678;52.052;4.242;2024-03-08T11:06:29;101180.31;;;10.31;55.18
36692;BME280;22678;52.052;4.242;2024-03-08T11:08:54;101147.91;;;10.18;55.24
36692;BME280;22678;52.052;4.242;2024-03-08T11:11:31;101170.69;;;10.44;54.87
36692;BME280;22678;52.052;4.242;2024-03-08T11:13:57;101142.63;;;10.46;55.07
36692;BME280;22678;52.052;4.242;2024-03-08T11:21:43;101132.03;;;10.74;53.17
36692;BME280;22678;52.052;4.242;2024-03-08T11:24:11;101150.41;;;10.82;52.64
36692;BME280;22678;52.052;4.242;2024-03-08T11:26:38;101118.94;;;10.63;52.50
36692;BME280;22678;52.052;4.242;2024-03-08T11:34:40;101107.47;;;10.75;51.59
36692;BME280;22678;52.052;4.242;2024-03-08T11:37:10;101109.22;;;10.79;51.13
36692;BME280;22678;52.052;4.242;2024-03-08T11:39:39;101084.66;;;10.77;51.97
36692;BME280;22678;52.052;4.242;2024-03-08T11:42:04;101109.06;;;11.09;52.13
36692;BME280;22678;52.052;4.242;2024-03-08T11:44:30;101097.59;;;11.13;51.28
36692;BME280;22678;52.052;4.242;2024-03-08T11:46:57;101099.31;;;11.20;50.69
36692;BME280;22678;52.052;4.242;2024-03-08T11:49:22;101080.09;;;11.09;49.93
36692;BME280;22678;52.052;4.242;2024-03-08T11:51:51;101108.09;;;11.22;50.05
36692;BME280;22678;52.052;4.242;2024-03-08T11:54:17;101083.56;;;11.14;49.87
36692;BME280;22678;52.052;4.242;2024-03-08T11:56:44;101101.84;;;11.38;49.86
36692;BME280;22678;52.052;4.242;2024-03-08T11:59:12;101093.91;;;11.42;49.45
36692;BME280;22678;52.052;4.242;2024-03-08T12:01:38;101058.81;;;11.36;49.02
36692;BME280;22678;52.052;4.242;2024-03-08T12:04:04;101070.28;;;11.34;48.30
36692;BME280;22678;52.052;4.242;2024-03-08T12:06:39;101097.50;;;11.31;48.57
36692;BME280;22678;52.052;4.242;2024-03-08T12:09:07;101080.81;;;11.32;48.73
36692;BME280;22678;52.052;4.242;2024-03-08T12:11:34;101104.38;;;11.48;48.85
36692;BME280;22678;52.052;4.242;2024-03-08T12:14:01;101091.25;;;11.45;48.65
36692;BME280;22678;52.052;4.242;2024-03-08T12:16:26;101074.59;;;11.43;48.33
36692;BME280;22678;52.052;4.242;2024-03-08T12:18:52;101097.34;;;11.48;48.81
36692;BME280;22678;52.052;4.242;2024-03-08T12:21:18;101068.47;;;11.37;48.80
36692;BME280;22678;52.052;4.242;2024-03-08T12:24:03;101022.91;;;11.26;49.31
36692;BME280;22678;52.052;4.242;2024-03-08T12:26:28;101048.09;;;11.58;49.22
36692;BME280;22678;52.052;4.242;2024-03-08T12:29:18;101064.69;;;11.71;48.95
36692;BME280;22678;52.052;4.242;2024-03-08T12:31:45;100999.19;;;11.32;49.03
36692;BME280;22678;52.052;4.242;2024-03-08T12:34:11;101046.16;;;11.79;49.40
36692;BME280;22678;52.052;4.242;2024-03-08T12:36:44;101010.31;;;11.62;48.87
36692;BME280;22678;52.052;4.242;2024-03-08T12:39:10;101036.50;;;11.78;49.06
36692;BME280;22678;52.052;4.242;2024-03-08T12:41:40;101030.50;;;11.66;48.35
36692;BME280;22678;52.052;4.242;2024-03-08T12:44:06;101020.03;;;11.60;48.58
36692;BME280;22678;52.052;4.242;2024-03-08T12:46:39;101032.13;;;11.77;49.02
36692;BME280;22678;52.052;4.242;2024-03-08T12:49:09;101006.75;;;11.68;49.04
36692;BME280;22678;52.052;4.242;2024-03-08T12:51:35;101007.56;;;11.74;48.96
36692;BME280;22678;52.052;4.242;2024-03-08T12:54:01;101018.16;;;11.68;48.62
36692;BME280;22678;52.052;4.242;2024-03-08T12:56:31;101017.97;;;11.87;49.00
36692;BME280;22678;52.052;4.242;2024-03-08T12:58:57;101009.31;;;11.75;48.67
36692;BME280;22678;52.052;4.242;2024-03-08T13:01:23;100972.75;;;11.45;48.58
36692;BME280;22678;52.052;4.242;2024-03-08T13:03:48;100995.50;;;11.52;49.54
36692;BME280;22678;52.052;4.242;2024-03-08T13:06:19;100948.13;;;11.49;49.72
36692;BME280;22678;52.052;4.242;2024-03-08T13:08:47;100962.06;;;11.60;49.38